sensor_id;sensor_type;location;lat;lon;timestamp;temperature;humidity
44359;DHT22;30077;52.474;13.326;2023-04-25T00:01:14;9.60;99.90
44359;DHT22;30077;52.474;13.326;2023-04-25T00:06:15;9.60;99.90
44359;DHT22;30077;52.474;13.326;2023-04-25T00:11:17;9.70;99.90
44359;DHT22;30077;52.474;13.326;2023-04-25T00:16:18;9.70;99.90
44359;DHT22;30077;52.474;13.326;2023-04-25T00:21:19;9.70;99.90
44359;DHT22;30077;52.474;13.326;2023-04-25T00:26:20;9.80;99.90
44359;DHT22;30077;52.474;13.326;2023-04-25T00:31:21;9.70;99.90
44359;DHT22;30077;52.474;13.326;2023-04-25T00:36:22;9.80;99.90
44359;DHT22;30077;52.474;13.326;2023-04-25T00:41:25;9.80;99.90
44359;DHT22;30077;52.474;13.326;2023-04-25T00:46:26;9.80;99.90
44359;DHT22;30077;52.474;13.326;2023-04-25T00:51:26;9.80;99.90
44359;DHT22;30077;52.474;13.326;2023-04-25T00:56:27;9.90;99.90
44359;DHT22;30077;52.474;13.326;2023-04-25T01:01:28;9.90;99.90
44359;DHT22;30077;52.474;13.326;2023-04-25T01:06:29;9.80;99.90
44359;DHT22;30077;52.474;13.326;2023-04-25T01:11:30;9.80;99.90
44359;DHT22;30077;52.474;13.326;2023-04-25T01:16:32;9.80;99.90
44359;DHT22;30077;52.474;13.326;2023-04-25T01:21:33;9.80;99.90
44359;DHT22;30077;52.474;13.326;2023-04-25T01:26:34;9.80;99.90
44359;DHT22;30077;52.474;13.326;2023-04-25T01:31:36;9.70;99.90
44359;DHT22;30077;52.474;13.326;2023-04-25T01:36:37;9.70;99.90
44359;DHT22;30077;52.474;13.326;2023-04-25T01:41:38;9.70;99.90
44359;DHT22;30077;52.474;13.326;2023-04-25T01:46:39;9.70;99.90
44359;DHT22;30077;52.474;13.326;2023-04-25T01:51:40;9.80;99.90
44359;DHT22;30077;52.474;13.326;2023-04-25T01:56:41;9.80;99.90
44359;DHT22;30077;52.474;13.326;2023-04-25T02:01:42;9.70;99.90
44359;DHT22;30077;52.474;13.326;2023-04-25T02:06:42;9.70;99.90
44359;DHT22;30077;52.474;13.326;2023-04-25T02:11:44;9.80;99.90
44359;DHT22;30077;52.474;13.326;2023-04-25T02:16:44;9.80;99.90
44359;DHT22;30077;52.474;13.326;2023-04-25T02:21:46;9.80;99.90
44359;DHT22;30077;52.474;13.326;2023-04-25T02:26:47;9.80;99.90
44359;DHT22;30077;52.474;13.326;2023-04-25T02:31:49;9.70;99.90
44359;DHT22;30077;52.474;13.326;2023-04-25T02:36:50;9.60;99.90
44359;DHT22;30077;52.474;13.326;2023-04-25T02:41:51;9.60;99.90
44359;DHT22;30077;52.474;13.326;2023-04-25T02:46:52;9.60;99.90
44359;DHT22;30077;52.474;13.326;2023-04-25T02:51:53;9.60;99.90
44359;DHT22;30077;52.474;13.326;2023-04-25T02:56:53;9.60;99.90
44359;DHT22;30077;52.474;13.326;2023-04-25T03:01:54;9.60;99.90
44359;DHT22;30077;52.474;13.326;2023-04-25T03:06:55;9.50;99.90
44359;DHT22;30077;52.474;13.326;2023-04-25T03:11:55;9.50;99.90
44359;DHT22;30077;52.474;13.326;2023-04-25T03:16:56;9.50;99.90
44359;DHT22;30077;52.474;13.326;2023-04-25T03:21:57;9.50;99.90
44359;DHT22;30077;52.474;13.326;2023-04-25T03:26:57;9.50;99.90
44359;DHT22;30077;52.474;13.326;2023-04-25T03:31:58;9.50;99.90
44359;DHT22;30077;52.474;13.326;2023-04-25T03:36:59;9.50;99.90
44359;DHT22;30077;52.474;13.326;2023-04-25T03:42:00;9.40;99.90
44359;DHT22;30077;52.474;13.326;2023-04-25T03:47:01;9.40;99.90
44359;DHT22;30077;52.474;13.326;2023-04-25T03:52:02;9.40;99.90
44359;DHT22;30077;52.474;13.326;2023-04-25T03:57:03;9.40;99.90
44359;DHT22;30077;52.474;13.326;2023-04-25T04:02:04;9.30;99.90
44359;DHT22;30077;52.474;13.326;2023-04-25T04:07:04;9.30;99.90
44359;DHT22;30077;52.474;13.326;2023-04-25T04:12:05;9.40;99.90
44359;DHT22;30077;52.474;13.326;2023-04-25T04:17:06;9.40;99.90
44359;DHT22;30077;52.474;13.326;2023-04-25T04:22:07;9.40;99.90
44359;DHT22;30077;52.474;13.326;2023-04-25T04:27:08;9.40;99.90
44359;DHT22;30077;52.474;13.326;2023-04-25T04:32:08;9.50;99.90
44359;DHT22;30077;52.474;13.326;2023-04-25T04:37:09;9.50;99.90
44359;DHT22;30077;52.474;13.326;2023-04-25T04:42:10;9.50;99.90
44359;DHT22;30077;52.474;13.326;2023-04-25T04:47:11;9.50;99.90
44359;DHT22;30077;52.474;13.326;2023-04-25T04:52:14;9.60;99.90
44359;DHT22;30077;52.474;13.326;2023-04-25T04:57:15;9.60;99.90
44359;DHT22;30077;52.474;13.326;2023-04-25T05:02:16;9.70;99.90
44359;DHT22;30077;52.474;13.326;2023-04-25T05:07:18;9.90;99.90
44359;DHT22;30077;52.474;13.326;2023-04-25T05:12:19;9.90;99.90
44359;DHT22;30077;52.474;13.326;2023-04-25T05:17:19;10.00;99.90
44359;DHT22;30077;52.474;13.326;2023-04-25T05:22:20;10.10;99.90
44359;DHT22;30077;52.474;13.326;2023-04-25T05:27:21;10.10;99.90
44359;DHT22;30077;52.474;13.326;2023-04-25T05:32:21;10.00;99.90
44359;DHT22;30077;52.474;13.326;2023-04-25T05:37:22;10.00;99.90
44359;DHT22;30077;52.474;13.326;2023-04-25T05:42:23;10.10;99.90
44359;DHT22;30077;52.474;13.326;2023-04-25T05:47:26;10.10;99.90
44359;DHT22;30077;52.474;13.326;2023-04-25T05:52:26;10.10;99.90
44359;DHT22;30077;52.474;13.326;2023-04-25T05:57:27;10.10;99.90
44359;DHT22;30077;52.474;13.326;2023-04-25T06:02:28;10.10;99.90
44359;DHT22;30077;52.474;13.326;2023-04-25T06:07:29;10.20;99.90
44359;DHT22;30077;52.474;13.326;2023-04-25T06:12:33;10.30;99.90
44359;DHT22;30077;52.474;13.326;2023-04-25T06:17:33;10.30;99.90
44359;DHT22;30077;52.474;13.326;2023-04-25T06:22:35;10.30;99.90
44359;DHT22;30077;52.474;13.326;2023-04-25T06:27:36;10.50;99.90
44359;DHT22;30077;52.474;13.326;2023-04-25T06:32:36;10.50;99.90
44359;DHT22;30077;52.474;13.326;2023-04-25T06:37:37;10.50;99.90
44359;DHT22;30077;52.474;13.326;2023-04-25T06:42:38;10.40;99.90
44359;DHT22;30077;52.474;13.326;2023-04-25T06:47:38;10.30;99.90
44359;DHT22;30077;52.474;13.326;2023-04-25T06:52:39;10.20;99.90
44359;DHT22;30077;52.474;13.326;2023-04-25T06:57:40;10.20;99.90
44359;DHT22;30077;52.474;13.326;2023-04-25T07:02:40;10.00;99.90
44359;DHT22;30077;52.474;13.326;2023-04-25T07:07:43;10.10;99.90
44359;DHT22;30077;52.474;13.326;2023-04-25T07:12:44;9.90;99.90
44359;DHT22;30077;52.474;13.326;2023-04-25T07:17:44;9.90;99.90
44359;DHT22;30077;52.474;13.326;2023-04-25T07:22:45;9.70;99.90
44359;DHT22;30077;52.474;13.326;2023-04-25T07:27:46;9.60;99.90
44359;DHT22;30077;52.474;13.326;2023-04-25T07:32:46;9.50;99.90
44359;DHT22;30077;52.474;13.326;2023-04-25T07:37:47;9.70;99.90
44359;DHT22;30077;52.474;13.326;2023-04-25T07:42:48;9.80;99.90
44359;DHT22;30077;52.474;13.326;2023-04-25T07:47:49;10.10;99.90
44359;DHT22;30077;52.474;13.326;2023-04-25T07:52:50;10.10;99.90
44359;DHT22;30077;52.474;13.326;2023-04-25T07:57:50;10.00;99.90
44359;DHT22;30077;52.474;13.326;2023-04-25T08:02:51;10.10;99.90
44359;DHT22;30077;52.474;13.326;2023-04-25T08:07:53;10.00;99.90
44359;DHT22;30077;52.474;13.326;2023-04-25T08:12:54;10.40;99.90
44359;DHT22;30077;52.474;13.326;2023-04-25T08:17:54;10.30;99.90
44359;DHT22;30077;52.474;13.326;2023-04-25T08:22:55;10.30;99.90
44359;DHT22;30077;52.474;13.326;2023-04-25T08:27:56;10.40;99.90
44359;DHT22;30077;52.474;13.326;2023-04-25T08:32:57;10.70;99.90
44359;DHT22;30077;52.474;13.326;2023-04-25T08:37:58;10.70;99.90
44359;DHT22;30077;52.474;13.326;2023-04-25T08:42:58;10.60;99.90
44359;DHT22;30077;52.474;13.326;2023-04-25T08:48:01;10.50;99.90
44359;DHT22;30077;52.474;13.326;2023-04-25T08:53:04;10.90;99.90
44359;DHT22;30077;52.474;13.326;2023-04-25T08:58:05;10.40;99.90
44359;DHT22;30077;52.474;13.326;2023-04-25T09:03:08;10.80;99.90
44359;DHT22;30077;52.474;13.326;2023-04-25T09:08:09;10.70;99.90
44359;DHT22;30077;52.474;13.326;2023-04-25T09:13:12;11.00;99.90
44359;DHT22;30077;52.474;13.326;2023-04-25T09:18:25;10.60;99.90
44359;DHT22;30077;52.474;13.326;2023-04-25T09:23:26;10.60;99.90
44359;DHT22;30077;52.474;13.326;2023-04-25T09:28:27;10.80;99.90
44359;DHT22;30077;52.474;13.326;2023-04-25T09:33:29;11.10;99.90
44359;DHT22;30077;52.474;13.326;2023-04-25T09:38:33;11.60;99.80
44359;DHT22;30077;52.474;13.326;2023-04-25T09:43:45;11.40;99.90
44359;DHT22;30077;52.474;13.326;2023-04-25T09:48:50;11.60;99.90
44359;DHT22;30077;52.474;13.326;2023-04-25T09:53:51;11.80;99.20
44359;DHT22;30077;52.474;13.326;2023-04-25T09:58:53;11.40;99.10
44359;DHT22;30077;52.474;13.326;2023-04-25T10:03:56;11.80;98.40
44359;DHT22;30077;52.474;13.326;2023-04-25T10:08:57;11.70;98.40
44359;DHT22;30077;52.474;13.326;2023-04-25T10:13:59;12.30;96.80
44359;DHT22;30077;52.474;13.326;2023-04-25T10:19:01;12.90;95.00
44359;DHT22;30077;52.474;13.326;2023-04-25T10:24:03;12.30;94.70
44359;DHT22;30077;52.474;13.326;2023-04-25T10:29:04;12.60;94.50
44359;DHT22;30077;52.474;13.326;2023-04-25T10:34:05;12.10;94.30
44359;DHT22;30077;52.474;13.326;2023-04-25T10:39:06;11.70;94.20
44359;DHT22;30077;52.474;13.326;2023-04-25T10:44:08;11.90;94.20
44359;DHT22;30077;52.474;13.326;2023-04-25T10:49:09;11.80;94.70
44359;DHT22;30077;52.474;13.326;2023-04-25T10:54:11;12.20;94.10
44359;DHT22;30077;52.474;13.326;2023-04-25T10:59:14;12.50;93.80
44359;DHT22;30077;52.474;13.326;2023-04-25T11:09:24;12.70;92.80
44359;DHT22;30077;52.474;13.326;2023-04-25T11:14:25;12.20;91.60
44359;DHT22;30077;52.474;13.326;2023-04-25T11:19:27;11.30;93.20
44359;DHT22;30077;52.474;13.326;2023-04-25T11:24:30;11.10;94.40
44359;DHT22;30077;52.474;13.326;2023-04-25T11:29:35;10.60;94.30
44359;DHT22;30077;52.474;13.326;2023-04-25T11:34:35;10.40;93.30
44359;DHT22;30077;52.474;13.326;2023-04-25T11:39:36;10.50;93.00
44359;DHT22;30077;52.474;13.326;2023-04-25T11:44:38;10.50;92.50
44359;DHT22;30077;52.474;13.326;2023-04-25T11:49:40;10.90;91.60
44359;DHT22;30077;52.474;13.326;2023-04-25T11:54:40;11.70;90.90
44359;DHT22;30077;52.474;13.326;2023-04-25T11:59:41;11.80;89.30
44359;DHT22;30077;52.474;13.326;2023-04-25T12:04:42;11.40;90.90
44359;DHT22;30077;52.474;13.326;2023-04-25T12:09:42;11.70;90.90
44359;DHT22;30077;52.474;13.326;2023-04-25T12:14:46;12.00;90.70
44359;DHT22;30077;52.474;13.326;2023-04-25T12:19:49;11.70;90.60
44359;DHT22;30077;52.474;13.326;2023-04-25T12:24:50;11.70;90.60
44359;DHT22;30077;52.474;13.326;2023-04-25T12:29:55;12.20;90.40
44359;DHT22;30077;52.474;13.326;2023-04-25T12:34:56;12.30;87.10
44359;DHT22;30077;52.474;13.326;2023-04-25T12:39:57;12.30;87.60
44359;DHT22;30077;52.474;13.326;2023-04-25T12:44:58;12.20;87.40
44359;DHT22;30077;52.474;13.326;2023-04-25T12:49:58;11.80;90.00
44359;DHT22;30077;52.474;13.326;2023-04-25T12:54:59;11.80;90.70
44359;DHT22;30077;52.474;13.326;2023-04-25T13:00:00;11.70;90.40
44359;DHT22;30077;52.474;13.326;2023-04-25T13:05:00;12.00;90.30
44359;DHT22;30077;52.474;13.326;2023-04-25T13:10:01;12.30;88.10
44359;DHT22;30077;52.474;13.326;2023-04-25T13:15:03;12.10;87.60
44359;DHT22;30077;52.474;13.326;2023-04-25T13:20:05;12.20;88.40
44359;DHT22;30077;52.474;13.326;2023-04-25T13:25:08;12.40;87.50
44359;DHT22;30077;52.474;13.326;2023-04-25T13:30:10;12.00;88.70
44359;DHT22;30077;52.474;13.326;2023-04-25T13:35:13;12.10;89.00
44359;DHT22;30077;52.474;13.326;2023-04-25T13:40:14;12.20;89.00
44359;DHT22;30077;52.474;13.326;2023-04-25T13:45:14;11.60;90.30
44359;DHT22;30077;52.474;13.326;2023-04-25T13:50:15;11.60;90.40
44359;DHT22;30077;52.474;13.326;2023-04-25T13:55:16;11.80;90.10
44359;DHT22;30077;52.474;13.326;2023-04-25T14:00:17;11.80;90.50
44359;DHT22;30077;52.474;13.326;2023-04-25T14:05:18;11.80;91.00
44359;DHT22;30077;52.474;13.326;2023-04-25T14:10:18;11.30;91.00
44359;DHT22;30077;52.474;13.326;2023-04-25T14:15:19;11.20;91.30
44359;DHT22;30077;52.474;13.326;2023-04-25T14:20:20;11.10;91.80
44359;DHT22;30077;52.474;13.326;2023-04-25T14:25:22;10.90;91.00
44359;DHT22;30077;52.474;13.326;2023-04-25T14:30:22;10.90;90.90
44359;DHT22;30077;52.474;13.326;2023-04-25T14:35:23;10.90;91.10
44359;DHT22;30077;52.474;13.326;2023-04-25T14:40:25;11.30;91.00
44359;DHT22;30077;52.474;13.326;2023-04-25T14:45:26;11.60;90.50
44359;DHT22;30077;52.474;13.326;2023-04-25T14:50:27;11.60;90.80
44359;DHT22;30077;52.474;13.326;2023-04-25T14:55:28;11.90;90.50
44359;DHT22;30077;52.474;13.326;2023-04-25T15:00:28;11.30;91.00
44359;DHT22;30077;52.474;13.326;2023-04-25T15:05:31;10.90;92.20
44359;DHT22;30077;52.474;13.326;2023-04-25T15:10:32;11.20;92.70
44359;DHT22;30077;52.474;13.326;2023-04-25T15:15:32;11.20;93.00
44359;DHT22;30077;52.474;13.326;2023-04-25T15:20:34;10.80;93.10
44359;DHT22;30077;52.474;13.326;2023-04-25T15:25:35;10.80;93.80
44359;DHT22;30077;52.474;13.326;2023-04-25T15:30:35;11.20;93.50
44359;DHT22;30077;52.474;13.326;2023-04-25T15:35:37;11.80;92.90
44359;DHT22;30077;52.474;13.326;2023-04-25T15:40:38;11.80;92.00
44359;DHT22;30077;52.474;13.326;2023-04-25T15:45:38;11.40;91.90
44359;DHT22;30077;52.474;13.326;2023-04-25T15:50:40;11.50;92.40
44359;DHT22;30077;52.474;13.326;2023-04-25T15:55:41;11.20;92.50
44359;DHT22;30077;52.474;13.326;2023-04-25T16:00:41;11.20;92.70
44359;DHT22;30077;52.474;13.326;2023-04-25T16:05:42;11.20;93.30
44359;DHT22;30077;52.474;13.326;2023-04-25T16:10:43;11.00;93.60
44359;DHT22;30077;52.474;13.326;2023-04-25T16:15:44;10.80;93.70
44359;DHT22;30077;52.474;13.326;2023-04-25T16:20:44;10.60;93.90
44359;DHT22;30077;52.474;13.326;2023-04-25T16:25:45;10.50;92.80
44359;DHT22;30077;52.474;13.326;2023-04-25T16:30:46;10.60;92.40
44359;DHT22;30077;52.474;13.326;2023-04-25T16:35:46;10.40;92.60
44359;DHT22;30077;52.474;13.326;2023-04-25T16:40:49;10.30;93.10
44359;DHT22;30077;52.474;13.326;2023-04-25T16:45:50;10.20;93.70
44359;DHT22;30077;52.474;13.326;2023-04-25T16:50:51;10.30;93.60
44359;DHT22;30077;52.474;13.326;2023-04-25T16:55:52;10.30;93.10
44359;DHT22;30077;52.474;13.326;2023-04-25T17:00:53;10.70;92.60
44359;DHT22;30077;52.474;13.326;2023-04-25T17:05:55;11.70;91.10
44359;DHT22;30077;52.474;13.326;2023-04-25T17:10:56;12.30;90.60
44359;DHT22;30077;52.474;13.326;2023-04-25T17:15:57;11.70;91.10
44359;DHT22;30077;52.474;13.326;2023-04-25T17:20:59;11.00;91.40
44359;DHT22;30077;52.474;13.326;2023-04-25T17:25:59;10.70;91.90
44359;DHT22;30077;52.474;13.326;2023-04-25T17:31:00;10.60;92.50
44359;DHT22;30077;52.474;13.326;2023-04-25T17:36:01;10.50;93.30
44359;DHT22;30077;52.474;13.326;2023-04-25T17:41:04;10.20;93.70
44359;DHT22;30077;52.474;13.326;2023-04-25T17:46:06;10.00;94.30
44359;DHT22;30077;52.474;13.326;2023-04-25T17:51:07;9.90;95.00
44359;DHT22;30077;52.474;13.326;2023-04-25T17:56:08;9.70;95.40
44359;DHT22;30077;52.474;13.326;2023-04-25T18:01:09;9.60;95.90
44359;DHT22;30077;52.474;13.326;2023-04-25T18:06:10;9.40;96.60
44359;DHT22;30077;52.474;13.326;2023-04-25T18:11:11;9.30;97.60
44359;DHT22;30077;52.474;13.326;2023-04-25T18:16:12;9.40;98.00
44359;DHT22;30077;52.474;13.326;2023-04-25T18:21:13;9.50;98.60
44359;DHT22;30077;52.474;13.326;2023-04-25T18:26:14;9.40;99.90
44359;DHT22;30077;52.474;13.326;2023-04-25T18:31:15;9.20;99.90
44359;DHT22;30077;52.474;13.326;2023-04-25T18:36:16;9.00;99.90
44359;DHT22;30077;52.474;13.326;2023-04-25T18:41:17;9.00;99.90
44359;DHT22;30077;52.474;13.326;2023-04-25T18:46:18;8.90;99.90
44359;DHT22;30077;52.474;13.326;2023-04-25T18:51:23;8.90;99.90
44359;DHT22;30077;52.474;13.326;2023-04-25T18:56:28;8.80;99.90
44359;DHT22;30077;52.474;13.326;2023-04-25T19:01:29;8.80;99.90
44359;DHT22;30077;52.474;13.326;2023-04-25T19:06:30;8.70;99.90
44359;DHT22;30077;52.474;13.326;2023-04-25T19:11:32;8.70;99.90
44359;DHT22;30077;52.474;13.326;2023-04-25T19:16:34;8.50;99.90
44359;DHT22;30077;52.474;13.326;2023-04-25T19:21:38;8.50;99.90
44359;DHT22;30077;52.474;13.326;2023-04-25T19:26:42;8.40;99.90
44359;DHT22;30077;52.474;13.326;2023-04-25T19:31:43;8.20;99.90
44359;DHT22;30077;52.474;13.326;2023-04-25T19:36:45;8.10;99.90
44359;DHT22;30077;52.474;13.326;2023-04-25T19:41:45;8.10;99.90
44359;DHT22;30077;52.474;13.326;2023-04-25T19:46:46;8.00;99.90
44359;DHT22;30077;52.474;13.326;2023-04-25T19:51:48;7.90;99.90
44359;DHT22;30077;52.474;13.326;2023-04-25T19:56:49;7.90;99.90
44359;DHT22;30077;52.474;13.326;2023-04-25T20:01:49;7.80;99.90
44359;DHT22;30077;52.474;13.326;2023-04-25T20:06:50;7.70;99.90
44359;DHT22;30077;52.474;13.326;2023-04-25T20:11:52;7.70;99.90
44359;DHT22;30077;52.474;13.326;2023-04-25T20:16:53;7.60;99.90
44359;DHT22;30077;52.474;13.326;2023-04-25T20:21:53;7.50;99.90
44359;DHT22;30077;52.474;13.326;2023-04-25T20:26:54;7.50;99.90
44359;DHT22;30077;52.474;13.326;2023-04-25T20:31:58;7.50;99.90
44359;DHT22;30077;52.474;13.326;2023-04-25T20:36:59;7.40;99.90
44359;DHT22;30077;52.474;13.326;2023-04-25T20:42:02;7.40;99.90
44359;DHT22;30077;52.474;13.326;2023-04-25T20:47:02;7.30;99.90
44359;DHT22;30077;52.474;13.326;2023-04-25T20:52:04;7.30;99.90
44359;DHT22;30077;52.474;13.326;2023-04-25T20:57:05;7.30;99.90
44359;DHT22;30077;52.474;13.326;2023-04-25T21:02:07;7.40;99.90
44359;DHT22;30077;52.474;13.326;2023-04-25T21:07:10;7.50;99.90
44359;DHT22;30077;52.474;13.326;2023-04-25T21:12:14;7.50;99.90
44359;DHT22;30077;52.474;13.326;2023-04-25T21:17:15;7.50;99.90
44359;DHT22;30077;52.474;13.326;2023-04-25T21:22:16;7.50;99.90
44359;DHT22;30077;52.474;13.326;2023-04-25T21:27:17;7.30;99.90
44359;DHT22;30077;52.474;13.326;2023-04-25T21:32:17;7.20;99.90
44359;DHT22;30077;52.474;13.326;2023-04-25T21:37:21;7.10;99.90
44359;DHT22;30077;52.474;13.326;2023-04-25T21:42:21;7.00;99.90
44359;DHT22;30077;52.474;13.326;2023-04-25T21:47:22;7.00;99.90
44359;DHT22;30077;52.474;13.326;2023-04-25T21:52:23;6.90;99.90
44359;DHT22;30077;52.474;13.326;2023-04-25T21:57:24;6.80;99.90
44359;DHT22;30077;52.474;13.326;2023-04-25T22:02:25;6.80;99.90
44359;DHT22;30077;52.474;13.326;2023-04-25T22:07:26;6.70;99.90
44359;DHT22;30077;52.474;13.326;2023-04-25T22:12:27;6.70;99.90
44359;DHT22;30077;52.474;13.326;2023-04-25T22:17:28;6.60;99.90
44359;DHT22;30077;52.474;13.326;2023-04-25T22:22:29;6.50;99.90
44359;DHT22;30077;52.474;13.326;2023-04-25T22:27:29;6.50;99.90
44359;DHT22;30077;52.474;13.326;2023-04-25T22:32:30;6.40;99.90
44359;DHT22;30077;52.474;13.326;2023-04-25T22:37:31;6.40;99.90
44359;DHT22;30077;52.474;13.326;2023-04-25T22:42:41;6.40;99.90
44359;DHT22;30077;52.474;13.326;2023-04-25T22:47:43;6.30;99.90
44359;DHT22;30077;52.474;13.326;2023-04-25T22:52:45;6.30;99.90
44359;DHT22;30077;52.474;13.326;2023-04-25T22:57:46;6.20;99.90
44359;DHT22;30077;52.474;13.326;2023-04-25T23:02:47;6.20;99.90
44359;DHT22;30077;52.474;13.326;2023-04-25T23:07:49;6.10;99.90
44359;DHT22;30077;52.474;13.326;2023-04-25T23:12:50;6.10;99.90
44359;DHT22;30077;52.474;13.326;2023-04-25T23:17:50;6.00;99.90
44359;DHT22;30077;52.474;13.326;2023-04-25T23:22:51;5.90;99.90
44359;DHT22;30077;52.474;13.326;2023-04-25T23:27:52;5.90;99.90
44359;DHT22;30077;52.474;13.326;2023-04-25T23:32:53;5.80;99.90
44359;DHT22;30077;52.474;13.326;2023-04-25T23:37:54;5.80;99.90
44359;DHT22;30077;52.474;13.326;2023-04-25T23:42:55;5.80;99.90
44359;DHT22;30077;52.474;13.326;2023-04-25T23:47:55;5.70;99.90
44359;DHT22;30077;52.474;13.326;2023-04-25T23:52:56;5.60;99.90
44359;DHT22;30077;52.474;13.326;2023-04-25T23:57:57;5.60;99.90
